Huvudsida
METAR-TAF:

METAR-TAF

Flygplatser :

Kiruna Airport

Kiruna, Sverige

latitud: 67-49N, longitud: 020-20E, höjd: 452 m

Aktuellt väderrapport

Denna rapport gjordes för 36 minuter sedan, klockan 11:20 UTC
Stilla vind
Temperatur -11°C
Fuktighet 92%
Tryck 1020 hPa
Sikt 10 km eller mer
Få moln på en höjd av 3700 ft

METAR: ESNQ 111120Z 00000KT 9999 FEW037 M11/M12 Q1020

Tid: 12:56 (11:56 UTC)

Väderprognos

Denna rapport gjordes för 26 minuter sedan, klockan 11:30 UTC
Prognos gäller från 11 kl. 12 UTC till 11 kl. 18 UTC
Vind 2 kt varierande vindriktning
Sikt 10 km eller mer
Brutna moln på en höjd av 4000 ft

TAF: ESNQ 111130Z 1112/1118 VRB02KT 9999 BKN040

Aktuella väderrapporter och prognoser från 4000 flygplatser (METAR- och TAF-rapporter).

De tillgängliga stationerna syns som gula och röda prickar på kartan.

För musen över prickarna för att se namnen på stationerna.

Klicka sedan för att få väderrapporter och prognoser.

För att ändra kartan: Klicka på de gröna knapparna med ett svart kors på för att zooma in; den gröna knappen med ett streck på för att zooma ut; eller på de gröna pilarna för angränsande kartor.


METAR-TAF: